Terminal Aerodrome Forecast
Issued by NWS

Home | Current Version | Previous Version | Text Only | Print | Product List | Glossary On
Versions: 1 2 3 4 5 6 7 8 9 10 11 12 13 14 15 16 17 18 19 20 21 22 23 24
000
FTUS46 KMTR 040207 AAA
TAFMRY
TAF AMD
KMRY 040207Z 0402/0424 23009KT P6SM BKN018
      TEMPO 0402/0405 SCT018
     FM041000 25007KT P6SM BKN015
     FM041700 27011KT P6SM FEW018
     FM042100 25015G20KT P6SM FEW020=

USA.gov is the U.S. government's official web portal to all federal, state and local government web resources and services.